METAR Data
IDs: Format: Raw Decoded Include TAF

Data at: 1433 UTC 10 Aug 2022

KSMX 101351Z 20004KT 10SM BKN007 14/13 A3003 RMK AO2 SLP172 T01390128 $
KSMX 101251Z 19003KT 10SM OVC007 14/13 A3002 RMK AO2 SLP166 T01440128 $
KSMX 101151Z AUTO 20004KT 10SM OVC007 15/13 A3002 RMK AO2 SLP165 T01500128 10156 20144 56002 $
KSMX 101107Z AUTO 00000KT 10SM OVC005 15/14 A3002 RMK AO2 T01500139 $
KSMX 101051Z AUTO 11003KT 9SM OVC004 15/14 A3002 RMK AO2 SLP166 T01500139 $
KSMX 100951Z AUTO 30003KT 7SM OVC003 15/14 A3002 RMK AO2 SLP165 T01500139 $
KSMX 100851Z AUTO 29009KT 6SM BR OVC002 15/14 A3002 RMK AO2 SLP167 T01500139 58000 $
KSMX 100812Z AUTO 28005KT 8SM BKN004 15/13 A3002 RMK AO2 T01500133 $
KSMX 100804Z AUTO 29004KT 9SM SCT005 14/13 A3002 RMK AO2 T01440133 $
KSMX 100751Z AUTO 29003KT 9SM CLR 14/13 A3003 RMK AO2 SLP169 T01440128 402440139 $
KSMX 100651Z AUTO 00000KT 10SM CLR 15/13 A3002 RMK AO2 SLP165 T01500128 $
KSMX 100551Z AUTO 00000KT 10SM CLR 15/13 A3002 RMK AO2 SLP167 T01500128 10206 20150 53012 $
KSMX 100451Z AUTO 00000KT 10SM CLR 16/13 A3001 RMK AO2 SLP163 T01560133 $
KSMX 100351Z AUTO 30004KT 10SM CLR 16/14 A2999 RMK AO2 SLP159 T01560139 $
KSMX 100251Z 29007KT 10SM CLR 17/13 A2999 RMK AO2 SLP156 T01670133 53006 $
KSMX 100151Z 31010KT 10SM CLR 18/13 A2998 RMK AO2 SLP152 T01830133 $
KSMX 100051Z 29012KT 10SM CLR 20/13 A2997 RMK AO2 SLP151 T02000133 $
KSMX 092351Z 31012KT 10SM CLR 21/14 A2997 RMK AO2 SLP149 T02110139 10244 20206 56007 $
KSMX 092251Z 31015KT 10SM CLR 22/13 A2997 RMK AO2 SLP150 T02170133 $
KSMX 092151Z 32011KT 9SM CLR 22/14 A2998 RMK AO2 SLP153 T02220139 $
KSMX 092051Z 31010KT 9SM CLR 23/14 A2999 RMK AO2 SLP156 T02280144 56003 $
KSMX 091951Z 30012KT 9SM CLR 22/14 A2999 RMK AO2 SLP157 T02220144 $
KSMX 091851Z 29005KT 10SM CLR 24/14 A2999 RMK AO2 SLP156 T02390139 $
KSMX 091751Z COR VRB03KT 10SM FEW200 21/14 A3000 RMK AO2 SLP159 T02110144 10211 20144 58001 $
KSMX 091712Z VRB03KT 10SM SCT008 18/14 A3001 RMK AO2 T01830144 $
KSMX 091651Z 00000KT 9SM BKN007 17/14 A3001 RMK AO2 SLP163 T01670139 $
KSMX 091551Z 28003KT 7SM OVC005 15/13 A3001 RMK AO2 SLP165 T01500133 $
KSMX 091451Z 17004KT 7SM OVC005 15/13 A3000 RMK AO2 SLP161 T01500133 53012 $
KSMX 091351Z 00000KT 6SM BR OVC005 14/13 A2999 RMK AO2 SLP156 T01440133 $
KSMX 091251Z 00000KT 8SM OVC005 14/13 A2997 RMK AO2 SLP151 T01440133 $
KSMX 091231Z AUTO VRB03KT 7SM OVC005 14/13 A2997 RMK AO2 T01440133 $
KSMX 091151Z AUTO 00000KT 9SM OVC004 14/13 A2997 RMK AO2 SLP148 T01440133 10150 20139 53002 $
KSMX 091051Z AUTO 20005KT 8SM OVC004 14/13 A2996 RMK AO2 SLP145 T01440133 $
KSMX 091039Z AUTO 20004KT 8SM OVC004 14/13 A2995 RMK AO2 T01440133 $
KSMX 090951Z AUTO 21004KT 8SM OVC007 14/13 A2995 RMK AO2 SLP143 T01440133 $
KSMX 090851Z AUTO 18007KT 8SM BKN007 14/13 A2996 RMK AO2 SLP146 T01390128 58004 $
KSMX 090846Z AUTO 17005KT 9SM SCT007 14/13 A2996 RMK AO2 $
KSMX 090751Z AUTO 19003KT 9SM CLR 14/13 A2997 RMK AO2 SLP151 T01440128 402280128 $
KSMX 090651Z AUTO 05003KT 9SM CLR 15/13 A2997 RMK AO2 SLP150 T01500133 $
KSMX 090551Z AUTO 00000KT 10SM CLR 15/13 A2997 RMK AO2 SLP149 T01500128 10211 20150 50008 $
KSMX 090451Z AUTO 29006KT 10SM CLR 16/13 A2997 RMK AO2 SLP151 T01560133 $
KSMX 090351Z AUTO 32005KT 10SM CLR 16/13 A2996 RMK AO2 SLP145 T01560133 $
KSMX 090251Z 32004KT 9SM CLR 17/13 A2994 RMK AO2 SLP141 T01670133 52002 $